Time;durP1;ratioP1;P1;durP2;ratioP2;P2;SDS_P1;SDS_P2;PMS_P1;PMS_P2;Temp;Humidity;BMP_temperature;BMP_pressure;BME280_temperature;BME280_humidity;BME280_pressure;Samples;Min_cycle;Max_cycle;Signal;HPM_P1;HPM_P2
2022/04/18 00:02:17;;;;;;;6.43;2.83;;;-1.00;99.90;;;;;;4359757;28;657850;-67
2022/04/18 00:05:05;;;;;;;6.53;2.97;;;-1.00;99.90;;;;;;4337393;28;657850;-68
2022/04/18 00:07:52;;;;;;;5.93;3.20;;;-1.10;99.90;;;;;;4336744;28;658084;-67
2022/04/18 00:10:41;;;;;;;4.73;2.80;;;-1.20;99.90;;;;;;4356984;28;657490;-67
2022/04/18 00:13:28;;;;;;;7.33;3.10;;;-1.20;99.90;;;;;;4333192;28;657963;-68
2022/04/18 00:16:15;;;;;;;8.43;3.43;;;-1.20;99.90;;;;;;4340727;28;657637;-67
2022/04/18 00:19:03;;;;;;;8.07;3.50;;;-1.10;99.90;;;;;;4359375;28;658722;-68
2022/04/18 00:21:50;;;;;;;5.87;3.13;;;-1.10;99.90;;;;;;4344924;28;657461;-68
2022/04/18 00:24:38;;;;;;;7.50;3.40;;;-1.20;99.90;;;;;;4357779;28;658567;-68
2022/04/18 00:27:27;;;;;;;7.23;3.40;;;-1.20;99.90;;;;;;4345843;28;657678;-67
2022/04/18 00:30:14;;;;;;;5.07;2.93;;;-1.20;99.90;;;;;;4357271;28;657783;-68
2022/04/18 00:33:01;;;;;;;4.65;2.90;;;-1.20;99.90;;;;;;4340953;28;657470;-68
2022/04/18 00:35:49;;;;;;;5.23;3.00;;;-1.20;99.90;;;;;;4359641;28;658341;-67
2022/04/18 00:38:36;;;;;;;5.53;2.77;;;-1.10;99.90;;;;;;4335660;28;657386;-67
2022/04/18 00:41:23;;;;;;;6.93;3.17;;;-1.10;99.90;;;;;;4358311;28;658204;-68
2022/04/18 00:44:12;;;;;;;5.93;2.80;;;-1.00;99.90;;;;;;4340265;28;658106;-67
2022/04/18 00:46:59;;;;;;;4.33;2.80;;;-1.00;99.90;;;;;;4358595;28;657476;-67
2022/04/18 00:49:47;;;;;;;5.73;2.93;;;-1.10;99.90;;;;;;4341010;28;658404;-68
2022/04/18 00:52:34;;;;;;;4.83;2.90;;;-1.10;99.90;;;;;;4359360;28;657536;-68
2022/04/18 00:55:22;;;;;;;5.87;3.03;;;-1.10;99.90;;;;;;4335929;28;657869;-67
2022/04/18 00:58:09;;;;;;;5.00;2.87;;;-1.10;99.90;;;;;;4358813;28;658227;-68
2022/04/18 01:00:58;;;;;;;7.23;2.93;;;-1.00;99.90;;;;;;4340533;28;657929;-68
2022/04/18 01:03:45;;;;;;;5.10;3.03;;;-0.90;99.90;;;;;;4351143;28;657530;-67
2022/04/18 01:06:33;;;;;;;5.03;3.00;;;-0.90;99.90;;;;;;4355536;28;658779;-67
2022/04/18 01:09:20;;;;;;;5.53;2.80;;;-1.00;99.90;;;;;;4335059;28;657370;-67
2022/04/18 01:12:08;;;;;;;4.70;2.80;;;-1.20;99.90;;;;;;4359400;28;657927;-67
2022/04/18 01:14:56;;;;;;;5.63;3.00;;;-1.10;99.90;;;;;;4340840;28;657917;-67
2022/04/18 01:17:45;;;;;;;6.63;2.80;;;-1.10;99.90;;;;;;4368666;28;657952;-68
2022/04/18 01:20:34;;;;;;;5.43;3.20;;;-1.10;99.90;;;;;;4340700;28;657911;-67
2022/04/18 01:23:23;;;;;;;5.87;3.33;;;-1.10;99.90;;;;;;4343903;28;657803;-67
2022/04/18 01:29:15;;;;;;;8.00;3.07;;;-1.20;99.90;;;;;;4333369;28;657680;-67
2022/04/18 01:32:03;;;;;;;5.67;3.10;;;-1.20;99.90;;;;;;4369193;28;658600;-68
2022/04/18 01:34:50;;;;;;;7.77;3.60;;;-1.30;99.90;;;;;;4351081;28;657580;-68
2022/04/18 01:37:38;;;;;;;5.30;3.20;;;-1.30;99.90;;;;;;4358801;28;658287;-67
2022/04/18 01:40:27;;;;;;;8.52;3.30;;;-1.30;99.90;;;;;;4343897;28;657507;-68
2022/04/18 01:43:14;;;;;;;6.17;3.50;;;-1.20;99.90;;;;;;4360742;28;657698;-68
2022/04/18 01:46:01;;;;;;;6.87;3.03;;;-1.30;99.90;;;;;;4343745;28;658052;-67
2022/04/18 01:48:51;;;;;;;4.93;2.90;;;-1.40;99.90;;;;;;4362399;28;657868;-68
2022/04/18 01:51:38;;;;;;;6.33;3.00;;;-1.50;99.90;;;;;;4336497;28;658405;-68
2022/04/18 01:54:26;;;;;;;5.93;3.40;;;-1.70;99.90;;;;;;4339100;28;657630;-67
2022/04/18 01:57:14;;;;;;;5.90;3.30;;;-1.70;99.90;;;;;;4365095;28;658254;-68
2022/04/18 02:00:02;;;;;;;5.60;2.87;;;-1.70;99.90;;;;;;4339586;28;658017;-68
2022/04/18 02:02:49;;;;;;;6.93;3.10;;;-1.70;99.90;;;;;;4366083;28;657720;-67
2022/04/18 02:05:36;;;;;;;7.13;3.57;;;-1.50;99.90;;;;;;4337320;28;657504;-68
2022/04/18 02:08:24;;;;;;;6.60;3.30;;;-1.50;99.90;;;;;;4356947;28;657921;-68
2022/04/18 02:11:11;;;;;;;5.67;3.30;;;-1.40;99.90;;;;;;4342871;28;658025;-68
2022/04/18 02:14:00;;;;;;;6.17;3.03;;;-1.30;99.90;;;;;;4365246;28;658176;-67
2022/04/18 02:16:47;;;;;;;5.07;2.87;;;-1.20;99.90;;;;;;4343837;28;658474;-68
2022/04/18 02:19:35;;;;;;;5.00;3.00;;;-1.10;99.90;;;;;;4358004;28;658090;-68
2022/04/18 02:22:23;;;;;;;5.43;3.10;;;-1.00;99.90;;;;;;4343264;28;658083;-67
2022/04/18 02:25:10;;;;;;;6.63;3.10;;;-0.90;99.90;;;;;;4343203;28;657518;-68
2022/04/18 02:27:58;;;;;;;5.67;3.10;;;-0.80;99.90;;;;;;4361909;28;658480;-68
2022/04/18 02:30:47;;;;;;;6.20;3.70;;;-0.80;99.90;;;;;;4341249;28;657838;-67
2022/04/18 02:33:34;;;;;;;6.00;3.43;;;-0.70;99.90;;;;;;4359978;28;657269;-68
2022/04/18 02:36:21;;;;;;;6.40;3.70;;;-0.60;99.90;;;;;;4336373;28;658208;-68
2022/04/18 02:39:09;;;;;;;5.57;2.87;;;-0.50;99.90;;;;;;4361064;28;657672;-68
2022/04/18 02:41:57;;;;;;;5.10;3.10;;;-0.50;99.90;;;;;;4343004;28;657580;-68
2022/04/18 02:44:46;;;;;;;9.50;3.40;;;-0.40;99.90;;;;;;4358379;28;657751;-68
2022/04/18 02:47:35;;;;;;;5.73;2.80;;;-0.30;99.90;;;;;;4334881;28;658179;-67
2022/04/18 02:50:23;;;;;;;5.93;3.40;;;-0.30;99.90;;;;;;4342126;28;658479;-68
2022/04/18 02:53:10;;;;;;;6.97;3.33;;;-0.20;99.90;;;;;;4351292;28;657618;-68
2022/04/18 02:55:58;;;;;;;5.63;3.20;;;-0.10;99.90;;;;;;4360196;28;658723;-67
2022/04/18 02:58:45;;;;;;;5.93;2.90;;;0.00;99.90;;;;;;4345209;28;657630;-67
2022/04/18 03:01:33;;;;;;;6.40;3.20;;;0.00;99.90;;;;;;4358381;28;657654;-68
2022/04/18 03:04:22;;;;;;;7.13;3.43;;;0.00;99.90;;;;;;4351398;28;656218;-68
2022/04/18 03:07:09;;;;;;;6.47;3.40;;;0.10;99.90;;;;;;4362188;28;657402;-68
2022/04/18 03:09:56;;;;;;;6.97;3.33;;;0.10;99.90;;;;;;4343816;28;656458;-68
2022/04/18 03:12:44;;;;;;;9.00;3.50;;;0.10;99.90;;;;;;4359568;28;656994;-67
2022/04/18 03:15:31;;;;;;;8.67;3.63;;;0.20;99.90;;;;;;4339544;28;656404;-67
2022/04/18 03:18:19;;;;;;;8.03;3.83;;;0.20;99.90;;;;;;4366018;28;657257;-67
2022/04/18 03:21:07;;;;;;;8.63;3.57;;;0.30;99.90;;;;;;4343082;28;656657;-68
2022/04/18 03:23:55;;;;;;;7.07;3.70;;;0.30;99.90;;;;;;4361773;28;656729;-67
2022/04/18 03:26:42;;;;;;;8.47;4.30;;;0.40;99.90;;;;;;4340556;28;657634;-68
2022/04/18 03:29:30;;;;;;;10.93;4.37;;;0.50;99.90;;;;;;4361497;28;656144;-68
2022/04/18 03:32:17;;;;;;;9.40;4.37;;;0.60;99.90;;;;;;4339149;28;658802;-67
2022/04/18 03:35:05;;;;;;;9.68;4.53;;;0.60;99.90;;;;;;4362280;28;657096;-68
2022/04/18 03:40:55;;;;;;;10.77;4.47;;;0.70;99.90;;;;;;4302506;28;657225;-67
2022/04/18 03:43:43;;;;;;;15.43;4.80;;;0.80;99.90;;;;;;4357762;28;659072;-67
2022/04/18 03:46:30;;;;;;;8.33;4.30;;;0.90;99.90;;;;;;4346969;28;657758;-67
2022/04/18 03:49:18;;;;;;;7.33;3.83;;;1.00;99.90;;;;;;4360916;28;657330;-67
2022/04/18 03:52:06;;;;;;;8.53;4.27;;;1.10;99.90;;;;;;4342188;28;656381;-68
2022/04/18 03:54:55;;;;;;;10.03;4.40;;;1.20;99.90;;;;;;4361953;28;656813;-67
2022/04/18 03:57:42;;;;;;;8.43;4.00;;;1.20;99.90;;;;;;4339038;28;658079;-67
2022/04/18 04:00:29;;;;;;;11.93;5.50;;;1.20;99.90;;;;;;4361266;28;656343;-67
2022/04/18 04:03:17;;;;;;;13.80;5.80;;;1.30;99.90;;;;;;4337451;28;657553;-67
2022/04/18 04:06:04;;;;;;;13.03;5.43;;;1.60;99.90;;;;;;4359239;28;657380;-67
2022/04/18 04:08:51;;;;;;;11.47;5.77;;;1.60;99.90;;;;;;4340989;28;657579;-68
2022/04/18 04:11:40;;;;;;;11.23;4.17;;;1.90;99.90;;;;;;4356485;28;658089;-68
2022/04/18 04:14:28;;;;;;;6.93;2.47;;;2.20;99.90;;;;;;4337248;28;658828;-68
2022/04/18 04:17:15;;;;;;;4.57;2.40;;;2.40;99.90;;;;;;4350786;28;656430;-68
2022/04/18 04:20:03;;;;;;;5.70;3.30;;;2.50;99.90;;;;;;4360339;28;656916;-68
2022/04/18 04:22:51;;;;;;;8.67;3.50;;;2.40;99.90;;;;;;4349955;28;656709;-68
2022/04/18 04:25:39;;;;;;;5.10;2.83;;;2.40;99.90;;;;;;4357438;28;656765;-68
2022/04/18 04:28:27;;;;;;;6.50;3.10;;;2.40;99.90;;;;;;4336909;28;657236;-68
2022/04/18 04:31:15;;;;;;;6.77;3.43;;;2.40;99.90;;;;;;4359476;28;656892;-68
2022/04/18 04:34:02;;;;;;;6.93;3.37;;;2.30;99.90;;;;;;4338039;28;657410;-67
2022/04/18 04:36:49;;;;;;;6.35;3.65;;;2.30;99.90;;;;;;4361828;28;656667;-67
2022/04/18 04:39:37;;;;;;;6.00;3.33;;;2.30;99.90;;;;;;4336875;28;656497;-67
2022/04/18 04:42:25;;;;;;;7.20;3.70;;;2.40;99.90;;;;;;4355224;28;656455;-68
2022/04/18 04:45:14;;;;;;;7.23;3.87;;;2.50;99.90;;;;;;4356331;28;657614;-68
2022/04/18 04:48:01;;;;;;;6.72;3.95;;;2.70;99.90;;;;;;4339042;28;656366;-68
2022/04/18 04:50:49;;;;;;;9.70;4.77;;;2.70;99.90;;;;;;4356331;28;657108;-68
2022/04/18 04:53:36;;;;;;;12.50;6.17;;;2.70;99.90;;;;;;4334663;28;656723;-68
2022/04/18 04:56:25;;;;;;;20.17;9.27;;;2.70;99.90;;;;;;4358332;28;657831;-67
2022/04/18 04:59:12;;;;;;;22.93;11.00;;;2.70;99.90;;;;;;4336707;28;658641;-67
2022/04/18 05:02:01;;;;;;;22.83;9.60;;;2.70;99.90;;;;;;4357881;28;658627;-67
2022/04/18 05:04:48;;;;;;;20.93;8.57;;;2.70;99.90;;;;;;4334801;28;657890;-67
2022/04/18 05:07:35;;;;;;;7.67;3.90;;;2.60;99.90;;;;;;4337077;28;657824;-67
2022/04/18 05:10:23;;;;;;;8.53;3.37;;;2.80;99.90;;;;;;4358381;28;656232;-68
2022/04/18 05:13:10;;;;;;;6.90;3.70;;;3.00;99.90;;;;;;4344978;28;658059;-67
2022/04/18 05:15:58;;;;;;;4.60;3.63;;;3.10;99.90;;;;;;4359119;28;657403;-67
2022/04/18 05:18:47;;;;;;;10.07;5.03;;;3.20;99.90;;;;;;4349087;28;656760;-67
2022/04/18 05:21:34;;;;;;;6.53;4.40;;;3.40;99.90;;;;;;4354185;28;657399;-68
2022/04/18 05:24:21;;;;;;;11.20;4.88;;;3.60;99.90;;;;;;4341531;28;656950;-68
2022/04/18 05:27:09;;;;;;;8.90;5.17;;;3.80;99.90;;;;;;4358369;28;658062;-68
2022/04/18 05:29:56;;;;;;;24.73;9.60;;;4.00;99.90;;;;;;4339198;28;656437;-67
2022/04/18 05:32:44;;;;;;;23.53;11.43;;;4.00;99.90;;;;;;4360256;28;657522;-68
2022/04/18 05:35:32;;;;;;;17.03;8.47;;;4.00;99.90;;;;;;4333795;28;658832;-68
2022/04/18 05:38:20;;;;;;;17.30;7.97;;;4.10;99.90;;;;;;4355866;28;657816;-68
2022/04/18 05:41:08;;;;;;;18.37;8.37;;;4.20;99.90;;;;;;4358300;28;658153;-67
2022/04/18 05:43:55;;;;;;;26.43;13.13;;;4.50;99.90;;;;;;4348927;28;658182;-68
2022/04/18 05:46:43;;;;;;;16.87;9.00;;;4.80;99.90;;;;;;4355875;28;659752;-67
2022/04/18 05:49:30;;;;;;;14.07;7.13;;;4.80;99.90;;;;;;4347214;28;657346;-68
2022/04/18 05:52:19;;;;;;;13.20;6.40;;;4.90;99.90;;;;;;4357613;28;658103;-67
2022/04/18 05:55:07;;;;;;;13.07;6.33;;;4.90;99.90;;;;;;4339618;28;657640;-67
2022/04/18 05:57:54;;;;;;;12.73;6.50;;;4.90;99.90;;;;;;4358754;28;657815;-67
2022/04/18 06:00:42;;;;;;;10.77;5.10;;;5.10;99.90;;;;;;4338386;28;658443;-67
2022/04/18 06:03:29;;;;;;;7.87;4.80;;;5.30;99.90;;;;;;4357865;28;658081;-67
2022/04/18 06:06:16;;;;;;;10.57;5.73;;;5.00;99.90;;;;;;4335651;28;657079;-68
2022/04/18 06:09:05;;;;;;;18.47;8.30;;;4.90;99.90;;;;;;4357005;28;657627;-67
2022/04/18 06:11:53;;;;;;;18.90;8.10;;;4.50;99.90;;;;;;4334310;28;658134;-68
2022/04/18 06:14:40;;;;;;;15.83;7.27;;;4.50;99.90;;;;;;4338111;28;657340;-68
2022/04/18 06:17:28;;;;;;;21.23;7.90;;;4.30;99.90;;;;;;4358063;28;658094;-67
2022/04/18 06:20:15;;;;;;;16.30;7.83;;;4.30;99.90;;;;;;4350577;28;657625;-67
2022/04/18 06:23:03;;;;;;;17.50;7.50;;;4.20;99.90;;;;;;4362330;28;658520;-67
2022/04/18 06:25:52;;;;;;;18.90;8.23;;;4.30;99.90;;;;;;4350830;28;657582;-67
2022/04/18 06:28:39;;;;;;;17.58;8.90;;;4.60;99.90;;;;;;4354629;28;657301;-67
2022/04/18 06:31:26;;;;;;;19.30;8.30;;;4.80;99.90;;;;;;4342280;28;658321;-67
2022/04/18 06:34:32;;;;;;;18.27;9.17;;;4.80;99.90;;;;;;4361419;28;657545;-67
2022/04/18 06:37:25;;;;;;;17.03;7.73;;;4.90;99.90;;;;;;4338182;28;657646;-67
2022/04/18 06:40:49;;;;;;;15.33;7.67;;;5.30;99.90;;;;;;4336797;28;657686;-67
2022/04/18 06:43:38;;;;;;;10.23;5.70;;;5.30;98.50;;;;;;4319782;28;658191;-67
2022/04/18 06:46:25;;;;;;;7.23;4.67;;;5.40;96.80;;;;;;4345917;28;657382;-67
2022/04/18 06:49:24;;;;;;;10.43;5.10;;;5.60;92.60;;;;;;4362535;28;656991;-68
2022/04/18 06:52:49;;;;;;;11.23;5.50;;;5.90;89.60;;;;;;4342610;28;659479;-67
2022/04/18 06:58:46;;;;;;;18.30;8.70;;;6.00;83.40;;;;;;4336024;28;657811;-68
2022/04/18 07:01:42;;;;;;;18.57;9.00;;;6.00;89.20;;;;;;4338613;28;658365;-68
2022/04/18 07:04:30;;;;;;;18.53;8.93;;;6.30;89.30;;;;;;4333129;28;657798;-67
2022/04/18 07:07:18;;;;;;;19.50;9.60;;;6.30;91.80;;;;;;4357641;28;658497;-67
2022/04/18 07:10:06;;;;;;;23.20;9.60;;;6.60;89.10;;;;;;4346032;28;658537;-67
2022/04/18 07:12:53;;;;;;;19.07;8.97;;;6.60;91.40;;;;;;4362478;28;658512;-68
2022/04/18 07:15:42;;;;;;;15.73;8.47;;;6.40;86.80;;;;;;4338819;28;657647;-67
2022/04/18 07:18:29;;;;;;;18.80;9.37;;;6.00;84.10;;;;;;4351127;28;657507;-67
2022/04/18 07:21:17;;;;;;;17.37;8.47;;;6.00;92.30;;;;;;4341050;28;657468;-67
2022/04/18 07:24:06;;;;;;;14.17;7.63;;;5.80;86.20;;;;;;4358630;28;657920;-67
2022/04/18 07:26:54;;;;;;;18.67;8.67;;;6.00;83.00;;;;;;4337060;28;658037;-67
2022/04/18 07:29:41;;;;;;;16.50;8.67;;;6.20;81.50;;;;;;4341874;28;657488;-67
2022/04/18 07:32:30;;;;;;;18.88;9.00;;;6.50;91.00;;;;;;4356069;28;658385;-67
2022/04/18 07:35:17;;;;;;;14.47;7.00;;;6.80;83.80;;;;;;4338103;28;658447;-67
2022/04/18 07:41:10;;;;;;;17.30;8.53;;;6.90;78.90;;;;;;4338343;28;658112;-68
2022/04/18 07:43:58;;;;;;;13.70;7.50;;;6.80;76.90;;;;;;4337953;28;658736;-68
2022/04/18 07:46:45;;;;;;;17.33;7.50;;;7.30;79.90;;;;;;4345983;28;657365;-67
2022/04/18 07:49:34;;;;;;;14.47;7.97;;;7.50;71.50;;;;;;4359225;28;658160;-68
2022/04/18 07:52:21;;;;;;;10.75;5.32;;;8.10;78.20;;;;;;4340869;28;657842;-67
2022/04/18 07:55:09;;;;;;;9.23;4.90;;;8.80;67.20;;;;;;4354733;28;657626;-67
2022/04/18 07:57:56;;;;;;;6.72;3.65;;;9.30;58.70;;;;;;4329347;28;657021;-67
2022/04/18 08:00:43;;;;;;;3.90;2.40;;;9.80;60.10;;;;;;4352754;28;656998;-67
2022/04/18 08:03:34;;;;;;;6.87;2.20;;;9.50;52.40;;;;;;4340561;28;656589;-68
2022/04/18 08:06:23;;;;;;;3.70;2.40;;;8.90;51.30;;;;;;4338549;28;656678;-67
2022/04/18 08:09:10;;;;;;;4.20;2.40;;;8.50;51.60;;;;;;4349708;28;656789;-68
2022/04/18 08:11:58;;;;;;;2.60;1.90;;;9.20;53.20;;;;;;4357612;28;657858;-68
2022/04/18 08:14:45;;;;;;;6.40;2.30;;;9.30;50.20;;;;;;4343766;28;656877;-67
2022/04/18 08:17:33;;;;;;;4.27;2.27;;;9.90;52.70;;;;;;4357396;28;658069;-65
2022/04/18 08:20:20;;;;;;;3.47;2.30;;;10.30;52.20;;;;;;4349812;28;656652;-66
2022/04/18 08:23:09;;;;;;;3.73;2.37;;;10.40;49.60;;;;;;4357804;28;658616;-66
2022/04/18 08:25:56;;;;;;;4.63;2.40;;;10.90;47.50;;;;;;4340464;28;657967;-66
2022/04/18 08:28:44;;;;;;;6.63;2.97;;;10.70;49.50;;;;;;4346187;28;658403;-65
2022/04/18 08:31:31;;;;;;;3.83;2.57;;;10.10;49.00;;;;;;4339232;28;657900;-66
2022/04/18 08:34:19;;;;;;;4.80;2.97;;;9.40;49.30;;;;;;4360000;28;658385;-66
2022/04/18 08:37:07;;;;;;;4.60;2.73;;;9.10;49.10;;;;;;4340279;28;656457;-66
2022/04/18 08:39:56;;;;;;;4.23;2.53;;;8.70;47.70;;;;;;4361209;28;656542;-66
2022/04/18 08:42:43;;;;;;;4.20;2.67;;;8.70;48.40;;;;;;4333377;28;657362;-66
2022/04/18 08:45:30;;;;;;;5.13;2.90;;;8.60;50.00;;;;;;4342135;28;656408;-66
2022/04/18 08:54:46;;;;;;;6.83;2.93;;;8.30;50.90;;;;;;4341819;28;657138;-66
2022/04/18 08:57:35;;;;;;;5.33;2.70;;;8.60;52.80;;;;;;4337667;28;656522;-66
2022/04/18 09:00:23;;;;;;;4.50;2.77;;;9.00;51.70;;;;;;4337182;28;657436;-66
2022/04/18 09:03:10;;;;;;;7.37;3.77;;;8.90;47.50;;;;;;4343789;28;656848;-66
2022/04/18 09:06:05;;;;;;;3.60;2.50;;;8.80;49.00;;;;;;4353849;28;657035;-66
2022/04/18 09:08:56;;;;;;;5.53;2.53;;;9.00;51.50;;;;;;4337530;28;657875;-66
2022/04/18 09:11:46;;;;;;;3.40;2.60;;;8.80;48.90;;;;;;4330990;28;657154;-66
2022/04/18 09:14:37;;;;;;;9.10;4.50;;;8.90;49.10;;;;;;4336251;28;657293;-66
2022/04/18 09:17:30;;;;;;;9.83;3.57;;;9.00;48.00;;;;;;4332965;28;656796;-66
2022/04/18 09:20:18;;;;;;;4.67;2.50;;;9.40;49.30;;;;;;4313190;28;657521;-66
2022/04/18 09:23:05;;;;;;;4.90;3.05;;;10.10;48.20;;;;;;4343997;28;656578;-66
2022/04/18 09:25:59;;;;;;;3.27;2.10;;;11.60;50.30;;;;;;4357538;28;658301;-66
2022/04/18 09:28:46;;;;;;;4.53;2.40;;;11.00;43.20;;;;;;4312260;28;657750;-65
2022/04/18 09:31:41;;;;;;;4.27;2.57;;;10.30;42.60;;;;;;4355230;28;658809;-66
2022/04/18 09:34:28;;;;;;;6.90;3.73;;;9.90;43.80;;;;;;4329632;28;658771;-67
2022/04/18 09:37:17;;;;;;;7.25;3.80;;;9.50;43.20;;;;;;4339562;28;657269;-66
2022/04/18 09:40:05;;;;;;;4.13;2.10;;;10.00;44.60;;;;;;4360461;28;656979;-66
2022/04/18 09:42:53;;;;;;;4.60;2.40;;;10.30;44.20;;;;;;4334691;28;658569;-66
2022/04/18 09:45:41;;;;;;;3.97;1.90;;;10.90;41.40;;;;;;4337967;28;658057;-66
2022/04/18 09:48:32;;;;;;;2.40;2.20;;;11.50;40.30;;;;;;4362353;28;658044;-66
2022/04/18 09:51:24;;;;;;;5.47;1.97;;;10.30;37.30;;;;;;4339939;28;657342;-66
2022/04/18 09:54:11;;;;;;;3.57;2.10;;;10.10;41.10;;;;;;4342137;28;657473;-66
2022/04/18 09:57:00;;;;;;;4.80;2.67;;;9.90;41.50;;;;;;4354204;28;657996;-68
2022/04/18 09:59:47;;;;;;;7.10;3.17;;;10.20;41.50;;;;;;4345019;28;657669;-68
2022/04/18 10:02:35;;;;;;;8.57;2.90;;;10.70;42.50;;;;;;4364923;28;657098;-68
2022/04/18 10:05:24;;;;;;;6.37;3.27;;;10.60;42.30;;;;;;4337221;28;657767;-68
2022/04/18 10:08:11;;;;;;;5.57;2.90;;;10.20;43.90;;;;;;4343357;28;657933;-68
2022/04/18 10:10:59;;;;;;;8.90;3.30;;;10.00;43.30;;;;;;4361988;28;658272;-68
2022/04/18 10:13:46;;;;;;;6.00;3.27;;;10.40;42.90;;;;;;4338345;28;657887;-68
2022/04/18 10:16:34;;;;;;;5.37;3.60;;;11.50;45.80;;;;;;4358328;28;657428;-68
2022/04/18 10:19:32;;;;;;;6.03;2.90;;;11.40;42.20;;;;;;4337020;28;657927;-66
2022/04/18 10:22:56;;;;;;;7.60;3.03;;;10.20;41.70;;;;;;4339195;28;658100;-66
2022/04/18 10:26:00;;;;;;;5.50;2.90;;;9.60;42.80;;;;;;4338671;28;657517;-66
2022/04/18 10:28:48;;;;;;;6.47;2.63;;;9.90;43.10;;;;;;4318246;28;656595;-66
2022/04/18 10:31:38;;;;;;;7.40;3.13;;;9.50;40.10;;;;;;4347983;28;656723;-66
2022/04/18 10:34:31;;;;;;;5.10;3.23;;;9.30;42.50;;;;;;4347970;28;656627;-66
2022/04/18 10:37:22;;;;;;;7.77;3.40;;;9.30;42.70;;;;;;4337241;28;657362;-66
2022/04/18 10:40:12;;;;;;;6.80;3.37;;;9.10;43.90;;;;;;4333615;28;657191;-66
2022/04/18 10:43:00;;;;;;;4.63;2.80;;;9.40;43.70;;;;;;4338858;28;656607;-66
2022/04/18 10:45:47;;;;;;;5.03;3.10;;;9.50;44.50;;;;;;4339662;28;657907;-66
2022/04/18 10:48:34;;;;;;;5.57;3.43;;;9.80;45.30;;;;;;4358531;28;657265;-66
2022/04/18 10:51:29;;;;;;;7.50;3.87;;;9.70;44.00;;;;;;4336016;28;657147;-67
2022/04/18 10:54:17;;;;;;;6.67;3.77;;;9.70;44.60;;;;;;4341563;28;656804;-69
2022/04/18 10:57:11;;;;;;;8.47;3.90;;;10.10;45.90;;;;;;4357586;28;656729;-68
2022/04/18 10:59:58;;;;;;;8.83;4.40;;;10.00;45.20;;;;;;4340159;28;658242;-68
2022/04/18 11:02:47;;;;;;;7.07;3.90;;;10.70;46.20;;;;;;4336367;28;657994;-69
2022/04/18 11:05:36;;;;;;;6.50;3.87;;;11.80;47.10;;;;;;4352503;28;657845;-68
2022/04/18 11:08:24;;;;;;;7.53;3.77;;;11.20;42.30;;;;;;4357285;28;657820;-69
2022/04/18 11:11:17;;;;;;;4.13;2.80;;;12.70;41.20;;;;;;4339901;28;657423;-69
2022/04/18 11:14:19;;;;;;;5.30;3.10;;;13.30;38.30;;;;;;4333912;28;658235;-69
2022/04/18 11:17:07;;;;;;;6.37;2.97;;;12.20;35.60;;;;;;4339690;28;657740;-68
2022/04/18 11:19:54;;;;;;;3.80;2.60;;;12.00;38.80;;;;;;4357972;28;657895;-69
2022/04/18 11:22:41;;;;;;;6.53;3.20;;;12.10;39.40;;;;;;4341854;28;658157;-69
2022/04/18 11:25:29;;;;;;;4.80;3.23;;;11.70;37.30;;;;;;4354918;28;657602;-69
2022/04/18 11:28:16;;;;;;;7.60;3.30;;;11.00;40.60;;;;;;4341209;28;659118;-68
2022/04/18 11:31:10;;;;;;;5.07;3.10;;;10.60;40.70;;;;;;4360808;28;658557;-68
2022/04/18 11:33:57;;;;;;;7.73;3.33;;;10.10;42.50;;;;;;4313160;28;657670;-68
2022/04/18 11:36:45;;;;;;;5.50;3.50;;;10.40;44.40;;;;;;4357864;28;657330;-68
2022/04/18 11:39:43;;;;;;;7.30;3.33;;;10.40;42.60;;;;;;4361163;28;658454;-68
2022/04/18 11:42:31;;;;;;;6.10;3.60;;;10.50;43.10;;;;;;4318678;28;658265;-68
2022/04/18 11:45:22;;;;;;;6.57;3.33;;;10.20;42.50;;;;;;4360109;28;659056;-68
2022/04/18 11:48:13;;;;;;;5.53;3.30;;;9.80;42.50;;;;;;4335190;28;657614;-68
2022/04/18 11:51:00;;;;;;;6.57;3.57;;;10.40;43.30;;;;;;4318478;28;656513;-68
2022/04/18 11:53:49;;;;;;;4.33;3.20;;;11.00;45.50;;;;;;4358006;28;657899;-68
2022/04/18 11:56:36;;;;;;;5.60;3.10;;;10.80;40.60;;;;;;4341142;28;658107;-68
2022/04/18 11:59:26;;;;;;;7.90;3.03;;;10.40;39.30;;;;;;4358921;28;658014;-68
2022/04/18 12:08:26;;;;;;;9.20;4.30;;;9.30;45.40;;;;;;4325338;28;656628;-68
2022/04/18 12:11:13;;;;;;;8.30;3.83;;;9.40;46.70;;;;;;4362912;28;657091;-68
2022/04/18 12:14:01;;;;;;;8.33;3.63;;;9.30;45.10;;;;;;4341317;28;656463;-68
2022/04/18 12:16:48;;;;;;;6.35;3.38;;;9.50;46.90;;;;;;4359566;28;658914;-68
2022/04/18 12:19:36;;;;;;;4.47;2.90;;;9.40;45.80;;;;;;4341750;28;657322;-68
2022/04/18 12:22:26;;;;;;;6.07;3.10;;;9.40;47.40;;;;;;4358599;28;657215;-68
2022/04/18 12:25:20;;;;;;;7.07;3.40;;;9.60;47.00;;;;;;4335045;28;656724;-68
2022/04/18 12:28:07;;;;;;;9.93;3.50;;;9.70;47.20;;;;;;4312301;28;658163;-69
2022/04/18 12:30:54;;;;;;;6.87;3.50;;;9.30;44.90;;;;;;4356947;28;656435;-68
2022/04/18 12:33:46;;;;;;;7.73;3.40;;;9.10;44.30;;;;;;4338823;28;657012;-68
2022/04/18 12:36:35;;;;;;;6.40;3.30;;;9.00;45.40;;;;;;4339793;28;656694;-69
2022/04/18 12:39:25;;;;;;;7.83;3.43;;;9.30;48.20;;;;;;4340621;28;657808;-69
2022/04/18 12:42:13;;;;;;;6.67;2.93;;;9.40;46.30;;;;;;4343063;28;657798;-69
2022/04/18 12:45:00;;;;;;;4.97;3.22;;;9.40;46.00;;;;;;4343451;28;656647;-67
2022/04/18 12:47:48;;;;;;;8.33;3.80;;;9.40;44.40;;;;;;4359752;28;657629;-66
2022/04/18 12:50:35;;;;;;;6.40;3.83;;;9.30;45.50;;;;;;4353616;28;657006;-66
2022/04/18 12:53:24;;;;;;;5.23;3.47;;;9.50;46.70;;;;;;4358006;28;657629;-66
2022/04/18 12:56:13;;;;;;;5.93;3.20;;;9.30;44.30;;;;;;4338832;28;656816;-66
2022/04/18 12:59:03;;;;;;;6.40;3.37;;;9.20;44.30;;;;;;4340644;28;656817;-66
2022/04/18 13:01:50;;;;;;;9.33;3.40;;;9.50;45.20;;;;;;4341072;28;656243;-66
2022/04/18 13:04:38;;;;;;;5.37;3.30;;;9.80;44.40;;;;;;4358189;28;657844;-67
2022/04/18 13:07:25;;;;;;;5.17;2.90;;;10.10;44.10;;;;;;4347002;28;656377;-66
2022/04/18 13:10:13;;;;;;;7.23;2.77;;;10.40;43.60;;;;;;4358822;28;657740;-67
2022/04/18 13:13:03;;;;;;;3.67;2.70;;;10.50;43.00;;;;;;4346887;28;657627;-66
2022/04/18 13:15:51;;;;;;;3.93;2.70;;;10.70;42.10;;;;;;4340729;28;657512;-67
2022/04/18 13:18:38;;;;;;;6.83;3.30;;;10.50;40.70;;;;;;4358321;28;658017;-67
2022/04/18 13:21:28;;;;;;;5.80;3.03;;;10.60;42.70;;;;;;4337498;28;657998;-67
2022/04/18 13:24:15;;;;;;;5.70;3.00;;;10.80;42.90;;;;;;4350231;28;657826;-67
2022/04/18 13:27:03;;;;;;;5.47;3.23;;;11.10;40.90;;;;;;4362591;28;659204;-67
2022/04/18 13:29:52;;;;;;;5.63;2.80;;;10.60;41.30;;;;;;4343561;28;657315;-66
2022/04/18 13:32:39;;;;;;;7.23;3.30;;;10.50;42.90;;;;;;4363040;28;659810;-67
2022/04/18 13:35:26;;;;;;;6.47;3.03;;;10.30;42.30;;;;;;4336930;28;657762;-66
2022/04/18 13:38:14;;;;;;;4.90;2.83;;;10.60;43.10;;;;;;4362919;28;657658;-67
2022/04/18 13:41:01;;;;;;;8.13;3.10;;;10.60;42.20;;;;;;4337098;28;657392;-66
2022/04/18 13:43:48;;;;;;;7.60;2.90;;;10.60;43.00;;;;;;4363109;28;657461;-67
2022/04/18 13:46:38;;;;;;;7.77;3.03;;;11.00;43.50;;;;;;4342061;28;657411;-67
2022/04/18 13:49:26;;;;;;;4.53;2.80;;;11.40;44.00;;;;;;4343823;28;657870;-66
2022/04/18 13:52:13;;;;;;;6.73;3.00;;;11.20;41.90;;;;;;4360626;28;658299;-66
2022/04/18 13:55:00;;;;;;;5.27;3.10;;;11.20;42.20;;;;;;4338955;28;657981;-66
2022/04/18 13:57:48;;;;;;;6.00;3.07;;;11.60;41.30;;;;;;4358223;28;658750;-66
2022/04/18 14:00:36;;;;;;;5.73;2.90;;;11.30;42.60;;;;;;4342898;28;657790;-66
2022/04/18 14:03:25;;;;;;;6.23;2.93;;;11.30;41.70;;;;;;4357372;28;658608;-67
2022/04/18 14:06:13;;;;;;;5.15;2.90;;;10.80;41.30;;;;;;4329017;28;658261;-67
2022/04/18 14:09:00;;;;;;;6.23;2.83;;;11.50;41.50;;;;;;4337778;28;657719;-66
2022/04/18 14:11:48;;;;;;;7.27;3.00;;;11.00;41.10;;;;;;4353427;28;659155;-66
2022/04/18 14:20:47;;;;;;;7.47;3.10;;;10.90;44.10;;;;;;4359803;28;657744;-67
2022/04/18 14:23:34;;;;;;;5.30;2.70;;;10.80;42.00;;;;;;4349676;28;656926;-66
2022/04/18 14:26:23;;;;;;;3.43;2.60;;;10.40;42.70;;;;;;4337230;28;657909;-66
2022/04/18 14:29:11;;;;;;;5.83;2.70;;;10.00;42.80;;;;;;4342043;28;657621;-66
2022/04/18 14:31:58;;;;;;;6.80;3.07;;;9.90;44.80;;;;;;4365249;28;657888;-66
2022/04/18 14:34:46;;;;;;;7.97;3.03;;;9.50;44.20;;;;;;4344038;28;657326;-66
2022/04/18 14:37:34;;;;;;;6.73;3.20;;;9.50;45.60;;;;;;4356853;28;655811;-67
2022/04/18 14:40:22;;;;;;;6.07;3.27;;;9.60;44.50;;;;;;4328151;28;656560;-66
2022/04/18 14:43:09;;;;;;;6.27;3.50;;;9.80;46.90;;;;;;4350494;28;656533;-66
2022/04/18 14:45:58;;;;;;;4.90;3.00;;;9.80;44.70;;;;;;4337429;28;656946;-66
2022/04/18 14:48:45;;;;;;;9.07;3.63;;;9.70;44.60;;;;;;4345351;28;656994;-66
2022/04/18 14:51:33;;;;;;;6.47;2.80;;;10.00;43.50;;;;;;4360137;28;658539;-66
2022/04/18 14:54:22;;;;;;;5.00;3.00;;;10.70;43.10;;;;;;4340267;28;658233;-66
2022/04/18 14:57:09;;;;;;;5.77;2.80;;;11.50;42.60;;;;;;4365716;28;657770;-67
2022/04/18 14:59:57;;;;;;;5.03;2.60;;;12.30;41.60;;;;;;4348507;28;657836;-66
2022/04/18 15:02:45;;;;;;;9.20;3.10;;;12.50;41.00;;;;;;4359052;28;657456;-67